sensor_id;sensor_type;location;lat;lon;timestamp;P1;durP1;ratioP1;P2;durP2;ratioP2
75191;SDS011;63771;52.580;9.734;2023-11-21T00:00:50;7.30;;;5.07;;
75191;SDS011;63771;52.580;9.734;2023-11-21T00:03:16;13.65;;;4.82;;
75191;SDS011;63771;52.580;9.734;2023-11-21T00:05:41;5.90;;;4.73;;
75191;SDS011;63771;52.580;9.734;2023-11-21T00:08:07;8.30;;;4.97;;
75191;SDS011;63771;52.580;9.734;2023-11-21T00:10:33;8.55;;;5.38;;
75191;SDS011;63771;52.580;9.734;2023-11-21T00:12:58;5.97;;;4.47;;
75191;SDS011;63771;52.580;9.734;2023-11-21T00:15:24;14.20;;;5.50;;
75191;SDS011;63771;52.580;9.734;2023-11-21T00:17:49;8.27;;;4.83;;
75191;SDS011;63771;52.580;9.734;2023-11-21T00:20:14;9.83;;;5.37;;
75191;SDS011;63771;52.580;9.734;2023-11-21T00:22:40;12.00;;;5.57;;
75191;SDS011;63771;52.580;9.734;2023-11-21T00:25:06;11.43;;;4.70;;
75191;SDS011;63771;52.580;9.734;2023-11-21T00:27:33;8.80;;;4.30;;
75191;SDS011;63771;52.580;9.734;2023-11-21T00:30:00;11.55;;;5.28;;
75191;SDS011;63771;52.580;9.734;2023-11-21T00:32:25;11.65;;;6.03;;
75191;SDS011;63771;52.580;9.734;2023-11-21T00:34:50;12.40;;;5.07;;
75191;SDS011;63771;52.580;9.734;2023-11-21T00:37:16;9.98;;;4.90;;
75191;SDS011;63771;52.580;9.734;2023-11-21T00:39:41;10.40;;;5.60;;
75191;SDS011;63771;52.580;9.734;2023-11-21T00:42:06;10.70;;;4.67;;
75191;SDS011;63771;52.580;9.734;2023-11-21T00:44:32;10.88;;;5.00;;
75191;SDS011;63771;52.580;9.734;2023-11-21T00:46:59;8.85;;;5.10;;
75191;SDS011;63771;52.580;9.734;2023-11-21T00:49:24;11.57;;;5.75;;
75191;SDS011;63771;52.580;9.734;2023-11-21T00:51:49;7.83;;;4.77;;
75191;SDS011;63771;52.580;9.734;2023-11-21T00:54:15;9.93;;;4.95;;
75191;SDS011;63771;52.580;9.734;2023-11-21T00:56:42;10.38;;;5.85;;
75191;SDS011;63771;52.580;9.734;2023-11-21T00:59:08;11.57;;;6.82;;
75191;SDS011;63771;52.580;9.734;2023-11-21T01:01:33;11.70;;;6.27;;
75191;SDS011;63771;52.580;9.734;2023-11-21T01:03:58;6.47;;;5.80;;
75191;SDS011;63771;52.580;9.734;2023-11-21T01:06:24;21.07;;;6.33;;
75191;SDS011;63771;52.580;9.734;2023-11-21T01:08:49;12.32;;;6.60;;
75191;SDS011;63771;52.580;9.734;2023-11-21T01:11:14;12.13;;;5.70;;
75191;SDS011;63771;52.580;9.734;2023-11-21T01:13:40;9.55;;;6.32;;
75191;SDS011;63771;52.580;9.734;2023-11-21T01:16:06;10.68;;;6.30;;
75191;SDS011;63771;52.580;9.734;2023-11-21T01:18:32;17.48;;;6.93;;
75191;SDS011;63771;52.580;9.734;2023-11-21T01:20:58;14.65;;;6.30;;
75191;SDS011;63771;52.580;9.734;2023-11-21T01:23:24;15.25;;;5.80;;
75191;SDS011;63771;52.580;9.734;2023-11-21T01:25:49;13.73;;;6.70;;
75191;SDS011;63771;52.580;9.734;2023-11-21T01:28:16;15.55;;;6.68;;
75191;SDS011;63771;52.580;9.734;2023-11-21T01:30:41;12.33;;;6.07;;
75191;SDS011;63771;52.580;9.734;2023-11-21T01:33:07;12.77;;;6.33;;
75191;SDS011;63771;52.580;9.734;2023-11-21T01:35:33;12.43;;;6.10;;
75191;SDS011;63771;52.580;9.734;2023-11-21T01:37:59;11.23;;;7.22;;
75191;SDS011;63771;52.580;9.734;2023-11-21T01:40:24;10.50;;;6.90;;
75191;SDS011;63771;52.580;9.734;2023-11-21T01:42:49;12.23;;;6.57;;
75191;SDS011;63771;52.580;9.734;2023-11-21T01:45:15;15.77;;;7.17;;
75191;SDS011;63771;52.580;9.734;2023-11-21T01:47:41;15.15;;;7.25;;
75191;SDS011;63771;52.580;9.734;2023-11-21T01:50:07;13.23;;;7.13;;
75191;SDS011;63771;52.580;9.734;2023-11-21T01:52:37;13.68;;;7.15;;
75191;SDS011;63771;52.580;9.734;2023-11-21T01:55:04;12.75;;;7.35;;
75191;SDS011;63771;52.580;9.734;2023-11-21T01:57:33;13.05;;;6.07;;
75191;SDS011;63771;52.580;9.734;2023-11-21T01:59:58;15.43;;;8.05;;
75191;SDS011;63771;52.580;9.734;2023-11-21T02:02:40;13.75;;;6.43;;
75191;SDS011;63771;52.580;9.734;2023-11-21T02:05:13;18.27;;;6.43;;
75191;SDS011;63771;52.580;9.734;2023-11-21T02:07:40;12.82;;;7.03;;
75191;SDS011;63771;52.580;9.734;2023-11-21T02:10:07;14.77;;;6.60;;
75191;SDS011;63771;52.580;9.734;2023-11-21T02:12:32;16.10;;;7.50;;
75191;SDS011;63771;52.580;9.734;2023-11-21T02:14:58;12.02;;;7.85;;
75191;SDS011;63771;52.580;9.734;2023-11-21T02:17:23;16.00;;;7.90;;
75191;SDS011;63771;52.580;9.734;2023-11-21T02:19:49;14.73;;;7.73;;
75191;SDS011;63771;52.580;9.734;2023-11-21T02:22:16;12.15;;;7.53;;
75191;SDS011;63771;52.580;9.734;2023-11-21T02:24:45;16.38;;;7.18;;
75191;SDS011;63771;52.580;9.734;2023-11-21T02:27:10;13.63;;;6.85;;
75191;SDS011;63771;52.580;9.734;2023-11-21T02:29:36;15.93;;;6.30;;
75191;SDS011;63771;52.580;9.734;2023-11-21T02:32:01;17.00;;;8.03;;
75191;SDS011;63771;52.580;9.734;2023-11-21T02:34:26;14.03;;;8.00;;
75191;SDS011;63771;52.580;9.734;2023-11-21T02:36:52;14.30;;;7.60;;
75191;SDS011;63771;52.580;9.734;2023-11-21T02:39:17;17.40;;;8.15;;
75191;SDS011;63771;52.580;9.734;2023-11-21T02:41:43;17.25;;;8.10;;
75191;SDS011;63771;52.580;9.734;2023-11-21T02:44:09;17.52;;;8.98;;
75191;SDS011;63771;52.580;9.734;2023-11-21T02:46:35;17.13;;;9.85;;
75191;SDS011;63771;52.580;9.734;2023-11-21T02:49:01;17.45;;;8.38;;
75191;SDS011;63771;52.580;9.734;2023-11-21T02:51:31;22.02;;;8.60;;
75191;SDS011;63771;52.580;9.734;2023-11-21T02:53:57;12.45;;;6.97;;
75191;SDS011;63771;52.580;9.734;2023-11-21T02:56:24;20.27;;;9.57;;
75191;SDS011;63771;52.580;9.734;2023-11-21T02:58:51;16.40;;;7.80;;
75191;SDS011;63771;52.580;9.734;2023-11-21T03:01:16;15.07;;;9.20;;
75191;SDS011;63771;52.580;9.734;2023-11-21T03:03:42;16.77;;;8.60;;
75191;SDS011;63771;52.580;9.734;2023-11-21T03:06:07;21.80;;;9.43;;
75191;SDS011;63771;52.580;9.734;2023-11-21T03:08:33;25.95;;;8.52;;
75191;SDS011;63771;52.580;9.734;2023-11-21T03:10:58;17.57;;;8.23;;
75191;SDS011;63771;52.580;9.734;2023-11-21T03:13:24;17.00;;;8.10;;
75191;SDS011;63771;52.580;9.734;2023-11-21T03:15:49;15.77;;;9.63;;
75191;SDS011;63771;52.580;9.734;2023-11-21T03:18:14;18.10;;;9.15;;
75191;SDS011;63771;52.580;9.734;2023-11-21T03:20:40;18.20;;;9.17;;
75191;SDS011;63771;52.580;9.734;2023-11-21T03:23:05;17.73;;;9.73;;
75191;SDS011;63771;52.580;9.734;2023-11-21T03:25:30;18.27;;;10.50;;
75191;SDS011;63771;52.580;9.734;2023-11-21T03:27:56;15.37;;;7.83;;
75191;SDS011;63771;52.580;9.734;2023-11-21T03:30:21;17.63;;;8.68;;
75191;SDS011;63771;52.580;9.734;2023-11-21T03:32:47;17.08;;;10.20;;
75191;SDS011;63771;52.580;9.734;2023-11-21T03:35:12;17.90;;;8.97;;
75191;SDS011;63771;52.580;9.734;2023-11-21T03:37:37;18.77;;;8.03;;
75191;SDS011;63771;52.580;9.734;2023-11-21T03:40:06;19.23;;;11.27;;
75191;SDS011;63771;52.580;9.734;2023-11-21T03:42:34;18.38;;;9.25;;
75191;SDS011;63771;52.580;9.734;2023-11-21T03:44:59;15.70;;;9.75;;
75191;SDS011;63771;52.580;9.734;2023-11-21T03:47:25;16.97;;;8.53;;
75191;SDS011;63771;52.580;9.734;2023-11-21T03:49:51;19.67;;;11.05;;
75191;SDS011;63771;52.580;9.734;2023-11-21T03:52:17;22.00;;;10.38;;
75191;SDS011;63771;52.580;9.734;2023-11-21T03:54:42;17.98;;;9.60;;
75191;SDS011;63771;52.580;9.734;2023-11-21T03:57:08;18.33;;;10.07;;
75191;SDS011;63771;52.580;9.734;2023-11-21T03:59:34;18.40;;;10.60;;
75191;SDS011;63771;52.580;9.734;2023-11-21T04:01:59;17.42;;;10.48;;
75191;SDS011;63771;52.580;9.734;2023-11-21T04:04:25;20.90;;;8.93;;
75191;SDS011;63771;52.580;9.734;2023-11-21T04:06:50;17.03;;;10.13;;
75191;SDS011;63771;52.580;9.734;2023-11-21T04:09:16;16.40;;;9.00;;
75191;SDS011;63771;52.580;9.734;2023-11-21T04:11:42;19.55;;;9.63;;
75191;SDS011;63771;52.580;9.734;2023-11-21T04:14:08;18.33;;;10.27;;
75191;SDS011;63771;52.580;9.734;2023-11-21T04:16:33;15.82;;;9.70;;
75191;SDS011;63771;52.580;9.734;2023-11-21T04:18:59;18.03;;;9.87;;
75191;SDS011;63771;52.580;9.734;2023-11-21T04:21:24;20.20;;;10.63;;
75191;SDS011;63771;52.580;9.734;2023-11-21T04:23:49;15.00;;;9.97;;
75191;SDS011;63771;52.580;9.734;2023-11-21T04:26:15;19.35;;;10.68;;
75191;SDS011;63771;52.580;9.734;2023-11-21T04:28:40;16.08;;;10.93;;
75191;SDS011;63771;52.580;9.734;2023-11-21T04:31:06;19.63;;;10.15;;
75191;SDS011;63771;52.580;9.734;2023-11-21T04:33:32;20.30;;;10.18;;
75191;SDS011;63771;52.580;9.734;2023-11-21T04:35:57;15.25;;;9.85;;
75191;SDS011;63771;52.580;9.734;2023-11-21T04:38:23;18.10;;;10.05;;
75191;SDS011;63771;52.580;9.734;2023-11-21T04:40:48;20.90;;;9.63;;
75191;SDS011;63771;52.580;9.734;2023-11-21T04:43:13;16.67;;;9.60;;
75191;SDS011;63771;52.580;9.734;2023-11-21T04:45:39;19.13;;;9.60;;
75191;SDS011;63771;52.580;9.734;2023-11-21T04:48:06;19.05;;;10.43;;
75191;SDS011;63771;52.580;9.734;2023-11-21T04:50:31;14.02;;;9.35;;
75191;SDS011;63771;52.580;9.734;2023-11-21T04:52:57;20.88;;;10.70;;
75191;SDS011;63771;52.580;9.734;2023-11-21T04:55:22;13.83;;;8.73;;
75191;SDS011;63771;52.580;9.734;2023-11-21T04:57:47;15.35;;;9.90;;
75191;SDS011;63771;52.580;9.734;2023-11-21T05:00:13;15.33;;;9.77;;
75191;SDS011;63771;52.580;9.734;2023-11-21T05:02:39;14.43;;;8.93;;
75191;SDS011;63771;52.580;9.734;2023-11-21T05:05:06;17.83;;;9.38;;
75191;SDS011;63771;52.580;9.734;2023-11-21T05:07:32;15.02;;;9.38;;
75191;SDS011;63771;52.580;9.734;2023-11-21T05:10:00;15.45;;;8.40;;
75191;SDS011;63771;52.580;9.734;2023-11-21T05:12:30;13.35;;;8.15;;
75191;SDS011;63771;52.580;9.734;2023-11-21T05:14:58;16.83;;;8.88;;
75191;SDS011;63771;52.580;9.734;2023-11-21T05:17:23;15.77;;;8.37;;
75191;SDS011;63771;52.580;9.734;2023-11-21T05:19:49;14.70;;;8.73;;
75191;SDS011;63771;52.580;9.734;2023-11-21T05:22:14;14.40;;;8.77;;
75191;SDS011;63771;52.580;9.734;2023-11-21T05:24:39;16.30;;;8.07;;
75191;SDS011;63771;52.580;9.734;2023-11-21T05:27:05;15.90;;;9.07;;
75191;SDS011;63771;52.580;9.734;2023-11-21T05:29:30;14.68;;;8.68;;
75191;SDS011;63771;52.580;9.734;2023-11-21T05:31:56;11.95;;;8.32;;
75191;SDS011;63771;52.580;9.734;2023-11-21T05:34:21;10.27;;;6.38;;
75191;SDS011;63771;52.580;9.734;2023-11-21T05:36:49;14.35;;;8.20;;
75191;SDS011;63771;52.580;9.734;2023-11-21T05:39:14;10.80;;;6.43;;
75191;SDS011;63771;52.580;9.734;2023-11-21T05:41:42;6.32;;;5.10;;
75191;SDS011;63771;52.580;9.734;2023-11-21T05:44:07;8.73;;;5.32;;
75191;SDS011;63771;52.580;9.734;2023-11-21T05:46:34;6.22;;;3.80;;
75191;SDS011;63771;52.580;9.734;2023-11-21T05:48:59;3.97;;;2.97;;
75191;SDS011;63771;52.580;9.734;2023-11-21T05:51:25;4.00;;;2.17;;
75191;SDS011;63771;52.580;9.734;2023-11-21T05:53:50;2.03;;;1.93;;
75191;SDS011;63771;52.580;9.734;2023-11-21T05:56:16;3.00;;;2.00;;
75191;SDS011;63771;52.580;9.734;2023-11-21T05:58:42;2.05;;;1.95;;
75191;SDS011;63771;52.580;9.734;2023-11-21T06:01:07;1.73;;;1.63;;
75191;SDS011;63771;52.580;9.734;2023-11-21T06:03:34;7.90;;;1.75;;
75191;SDS011;63771;52.580;9.734;2023-11-21T06:05:59;4.90;;;1.73;;
75191;SDS011;63771;52.580;9.734;2023-11-21T06:08:24;2.97;;;1.60;;
75191;SDS011;63771;52.580;9.734;2023-11-21T06:10:50;2.38;;;1.75;;
75191;SDS011;63771;52.580;9.734;2023-11-21T06:13:15;1.45;;;1.40;;
75191;SDS011;63771;52.580;9.734;2023-11-21T06:15:41;1.65;;;1.55;;
75191;SDS011;63771;52.580;9.734;2023-11-21T06:18:07;3.58;;;2.50;;
75191;SDS011;63771;52.580;9.734;2023-11-21T06:20:35;2.67;;;2.05;;
75191;SDS011;63771;52.580;9.734;2023-11-21T06:23:02;1.92;;;1.70;;
75191;SDS011;63771;52.580;9.734;2023-11-21T06:25:28;2.75;;;1.80;;
75191;SDS011;63771;52.580;9.734;2023-11-21T06:27:54;3.55;;;1.80;;
75191;SDS011;63771;52.580;9.734;2023-11-21T06:30:19;1.73;;;1.63;;
75191;SDS011;63771;52.580;9.734;2023-11-21T06:32:45;1.73;;;1.63;;
75191;SDS011;63771;52.580;9.734;2023-11-21T06:35:10;1.90;;;1.80;;
75191;SDS011;63771;52.580;9.734;2023-11-21T06:37:36;3.22;;;2.75;;
75191;SDS011;63771;52.580;9.734;2023-11-21T06:40:02;2.17;;;2.00;;
75191;SDS011;63771;52.580;9.734;2023-11-21T06:42:29;2.22;;;1.90;;
75191;SDS011;63771;52.580;9.734;2023-11-21T06:44:55;2.20;;;2.00;;
75191;SDS011;63771;52.580;9.734;2023-11-21T06:47:24;3.03;;;2.50;;
75191;SDS011;63771;52.580;9.734;2023-11-21T06:49:50;3.67;;;2.78;;
75191;SDS011;63771;52.580;9.734;2023-11-21T06:52:16;3.67;;;3.30;;
75191;SDS011;63771;52.580;9.734;2023-11-21T06:54:41;4.03;;;3.25;;
75191;SDS011;63771;52.580;9.734;2023-11-21T06:57:06;3.70;;;3.40;;
75191;SDS011;63771;52.580;9.734;2023-11-21T06:59:32;4.03;;;3.42;;
75191;SDS011;63771;52.580;9.734;2023-11-21T07:01:58;3.92;;;3.53;;
75191;SDS011;63771;52.580;9.734;2023-11-21T07:04:23;4.28;;;3.70;;
75191;SDS011;63771;52.580;9.734;2023-11-21T07:06:50;4.43;;;3.75;;
75191;SDS011;63771;52.580;9.734;2023-11-21T07:09:16;4.43;;;3.33;;
75191;SDS011;63771;52.580;9.734;2023-11-21T07:11:41;5.53;;;4.10;;
75191;SDS011;63771;52.580;9.734;2023-11-21T07:14:07;4.75;;;4.25;;
75191;SDS011;63771;52.580;9.734;2023-11-21T07:16:37;4.30;;;3.92;;
75191;SDS011;63771;52.580;9.734;2023-11-21T07:19:05;4.38;;;3.97;;
75191;SDS011;63771;52.580;9.734;2023-11-21T07:21:32;4.97;;;4.03;;
75191;SDS011;63771;52.580;9.734;2023-11-21T07:24:00;3.83;;;3.45;;
75191;SDS011;63771;52.580;9.734;2023-11-21T07:26:27;4.65;;;3.70;;
75191;SDS011;63771;52.580;9.734;2023-11-21T07:28:52;4.95;;;4.25;;
75191;SDS011;63771;52.580;9.734;2023-11-21T07:31:18;4.50;;;4.07;;
75191;SDS011;63771;52.580;9.734;2023-11-21T07:33:44;8.23;;;4.53;;
75191;SDS011;63771;52.580;9.734;2023-11-21T07:36:12;5.45;;;4.60;;
75191;SDS011;63771;52.580;9.734;2023-11-21T07:38:38;5.47;;;4.47;;
75191;SDS011;63771;52.580;9.734;2023-11-21T07:41:04;7.15;;;5.40;;
75191;SDS011;63771;52.580;9.734;2023-11-21T07:43:29;6.82;;;5.25;;
75191;SDS011;63771;52.580;9.734;2023-11-21T07:46:00;5.55;;;4.22;;
75191;SDS011;63771;52.580;9.734;2023-11-21T07:48:29;10.18;;;5.45;;
75191;SDS011;63771;52.580;9.734;2023-11-21T07:50:57;6.68;;;5.10;;
75191;SDS011;63771;52.580;9.734;2023-11-21T07:53:26;5.63;;;5.07;;
75191;SDS011;63771;52.580;9.734;2023-11-21T07:55:55;8.07;;;5.22;;
75191;SDS011;63771;52.580;9.734;2023-11-21T07:58:34;8.45;;;5.22;;
75191;SDS011;63771;52.580;9.734;2023-11-21T08:01:00;7.95;;;6.40;;
75191;SDS011;63771;52.580;9.734;2023-11-21T08:03:26;7.43;;;5.80;;
75191;SDS011;63771;52.580;9.734;2023-11-21T08:05:52;7.88;;;5.18;;
75191;SDS011;63771;52.580;9.734;2023-11-21T08:08:18;10.75;;;5.72;;
75191;SDS011;63771;52.580;9.734;2023-11-21T08:10:44;7.23;;;6.03;;
75191;SDS011;63771;52.580;9.734;2023-11-21T08:13:13;10.43;;;6.20;;
75191;SDS011;63771;52.580;9.734;2023-11-21T08:15:39;9.60;;;6.68;;
75191;SDS011;63771;52.580;9.734;2023-11-21T08:18:05;11.43;;;7.93;;
75191;SDS011;63771;52.580;9.734;2023-11-21T08:20:32;9.93;;;6.78;;
75191;SDS011;63771;52.580;9.734;2023-11-21T08:22:58;8.95;;;5.97;;
75191;SDS011;63771;52.580;9.734;2023-11-21T08:25:23;8.30;;;6.05;;
75191;SDS011;63771;52.580;9.734;2023-11-21T08:27:48;9.93;;;6.77;;
75191;SDS011;63771;52.580;9.734;2023-11-21T08:30:14;8.23;;;6.83;;
75191;SDS011;63771;52.580;9.734;2023-11-21T08:32:41;8.32;;;6.25;;
75191;SDS011;63771;52.580;9.734;2023-11-21T08:35:07;9.07;;;7.07;;
75191;SDS011;63771;52.580;9.734;2023-11-21T08:37:33;11.13;;;7.30;;
75191;SDS011;63771;52.580;9.734;2023-11-21T08:40:02;8.25;;;6.28;;
75191;SDS011;63771;52.580;9.734;2023-11-21T08:42:28;10.52;;;5.25;;
75191;SDS011;63771;52.580;9.734;2023-11-21T08:44:55;8.73;;;6.15;;
75191;SDS011;63771;52.580;9.734;2023-11-21T08:47:22;6.13;;;4.97;;
75191;SDS011;63771;52.580;9.734;2023-11-21T08:49:49;6.63;;;5.55;;
75191;SDS011;63771;52.580;9.734;2023-11-21T08:52:18;9.27;;;5.95;;
75191;SDS011;63771;52.580;9.734;2023-11-21T08:54:43;9.93;;;5.82;;
75191;SDS011;63771;52.580;9.734;2023-11-21T08:57:10;7.95;;;6.60;;
75191;SDS011;63771;52.580;9.734;2023-11-21T08:59:35;6.45;;;5.78;;
75191;SDS011;63771;52.580;9.734;2023-11-21T09:02:01;6.93;;;5.70;;
75191;SDS011;63771;52.580;9.734;2023-11-21T09:04:26;5.57;;;5.03;;
75191;SDS011;63771;52.580;9.734;2023-11-21T09:06:52;7.28;;;5.00;;
75191;SDS011;63771;52.580;9.734;2023-11-21T09:09:17;6.43;;;5.22;;
75191;SDS011;63771;52.580;9.734;2023-11-21T09:11:44;8.13;;;5.18;;
75191;SDS011;63771;52.580;9.734;2023-11-21T09:14:11;5.93;;;4.75;;
75191;SDS011;63771;52.580;9.734;2023-11-21T09:16:38;4.65;;;4.15;;
75191;SDS011;63771;52.580;9.734;2023-11-21T09:19:03;5.00;;;4.50;;
75191;SDS011;63771;52.580;9.734;2023-11-21T09:21:30;6.22;;;4.35;;
75191;SDS011;63771;52.580;9.734;2023-11-21T09:23:55;5.10;;;4.70;;
75191;SDS011;63771;52.580;9.734;2023-11-21T09:26:21;6.43;;;5.23;;
75191;SDS011;63771;52.580;9.734;2023-11-21T09:28:46;5.53;;;4.40;;
75191;SDS011;63771;52.580;9.734;2023-11-21T09:31:13;6.18;;;4.03;;
75191;SDS011;63771;52.580;9.734;2023-11-21T09:33:42;4.55;;;4.15;;
75191;SDS011;63771;52.580;9.734;2023-11-21T09:36:11;5.45;;;4.63;;
75191;SDS011;63771;52.580;9.734;2023-11-21T09:38:38;8.07;;;4.90;;
75191;SDS011;63771;52.580;9.734;2023-11-21T09:41:04;4.90;;;4.20;;
75191;SDS011;63771;52.580;9.734;2023-11-21T09:43:37;4.95;;;3.75;;
75191;SDS011;63771;52.580;9.734;2023-11-21T09:46:03;4.60;;;4.03;;
75191;SDS011;63771;52.580;9.734;2023-11-21T09:48:35;5.07;;;4.63;;
75191;SDS011;63771;52.580;9.734;2023-11-21T09:51:03;5.18;;;4.70;;
75191;SDS011;63771;52.580;9.734;2023-11-21T09:53:29;8.43;;;4.90;;
75191;SDS011;63771;52.580;9.734;2023-11-21T09:55:57;4.70;;;4.25;;
75191;SDS011;63771;52.580;9.734;2023-11-21T09:58:22;5.73;;;5.13;;
75191;SDS011;63771;52.580;9.734;2023-11-21T10:00:51;4.93;;;3.95;;
75191;SDS011;63771;52.580;9.734;2023-11-21T10:03:18;4.38;;;3.97;;
75191;SDS011;63771;52.580;9.734;2023-11-21T10:05:44;5.00;;;4.53;;
75191;SDS011;63771;52.580;9.734;2023-11-21T10:08:11;4.68;;;4.22;;
75191;SDS011;63771;52.580;9.734;2023-11-21T10:10:37;5.93;;;4.47;;
75191;SDS011;63771;52.580;9.734;2023-11-21T10:13:06;4.38;;;3.95;;
75191;SDS011;63771;52.580;9.734;2023-11-21T10:15:35;4.22;;;3.83;;
75191;SDS011;63771;52.580;9.734;2023-11-21T10:18:04;5.20;;;4.65;;
75191;SDS011;63771;52.580;9.734;2023-11-21T10:20:32;7.97;;;4.22;;
75191;SDS011;63771;52.580;9.734;2023-11-21T10:22:59;6.93;;;4.60;;
75191;SDS011;63771;52.580;9.734;2023-11-21T10:25:26;6.05;;;4.57;;
75191;SDS011;63771;52.580;9.734;2023-11-21T10:27:56;5.78;;;4.93;;
75191;SDS011;63771;52.580;9.734;2023-11-21T10:30:24;5.55;;;4.35;;
75191;SDS011;63771;52.580;9.734;2023-11-21T10:32:58;5.65;;;4.22;;
75191;SDS011;63771;52.580;9.734;2023-11-21T10:35:25;7.90;;;5.75;;
75191;SDS011;63771;52.580;9.734;2023-11-21T10:38:15;7.78;;;5.35;;
75191;SDS011;63771;52.580;9.734;2023-11-21T10:40:42;6.97;;;5.45;;
75191;SDS011;63771;52.580;9.734;2023-11-21T10:43:09;6.40;;;4.32;;
75191;SDS011;63771;52.580;9.734;2023-11-21T10:45:36;10.25;;;8.07;;
75191;SDS011;63771;52.580;9.734;2023-11-21T10:48:04;8.18;;;5.95;;
75191;SDS011;63771;52.580;9.734;2023-11-21T10:50:34;5.72;;;4.57;;
75191;SDS011;63771;52.580;9.734;2023-11-21T10:53:01;7.30;;;5.45;;
75191;SDS011;63771;52.580;9.734;2023-11-21T10:55:30;8.40;;;5.32;;
75191;SDS011;63771;52.580;9.734;2023-11-21T10:57:58;9.35;;;6.88;;
75191;SDS011;63771;52.580;9.734;2023-11-21T11:00:25;6.10;;;4.25;;
75191;SDS011;63771;52.580;9.734;2023-11-21T11:02:52;8.88;;;4.78;;
75191;SDS011;63771;52.580;9.734;2023-11-21T11:05:19;8.45;;;5.55;;
75191;SDS011;63771;52.580;9.734;2023-11-21T11:07:47;8.73;;;6.53;;
75191;SDS011;63771;52.580;9.734;2023-11-21T11:10:19;5.03;;;4.53;;
75191;SDS011;63771;52.580;9.734;2023-11-21T11:12:47;6.75;;;4.97;;
75191;SDS011;63771;52.580;9.734;2023-11-21T11:15:13;8.35;;;5.30;;
75191;SDS011;63771;52.580;9.734;2023-11-21T11:17:40;9.68;;;7.03;;
75191;SDS011;63771;52.580;9.734;2023-11-21T11:20:07;9.27;;;6.70;;
75191;SDS011;63771;52.580;9.734;2023-11-21T11:25:30;5.20;;;4.53;;
75191;SDS011;63771;52.580;9.734;2023-11-21T11:31:59;6.22;;;5.50;;
75191;SDS011;63771;52.580;9.734;2023-11-21T11:34:48;7.30;;;5.43;;
75191;SDS011;63771;52.580;9.734;2023-11-21T11:37:20;6.03;;;5.43;;
75191;SDS011;63771;52.580;9.734;2023-11-21T11:39:47;5.90;;;5.28;;
75191;SDS011;63771;52.580;9.734;2023-11-21T11:42:15;5.90;;;5.35;;
75191;SDS011;63771;52.580;9.734;2023-11-21T11:52:38;5.78;;;5.10;;
75191;SDS011;63771;52.580;9.734;2023-11-21T11:55:06;5.18;;;4.45;;
75191;SDS011;63771;52.580;9.734;2023-11-21T11:57:35;6.20;;;4.85;;
75191;SDS011;63771;52.580;9.734;2023-11-21T12:02:37;6.40;;;5.03;;
75191;SDS011;63771;52.580;9.734;2023-11-21T12:05:10;5.90;;;5.13;;
75191;SDS011;63771;52.580;9.734;2023-11-21T12:07:48;5.65;;;4.60;;
75191;SDS011;63771;52.580;9.734;2023-11-21T12:10:29;4.85;;;4.45;;
75191;SDS011;63771;52.580;9.734;2023-11-21T12:12:59;5.10;;;4.57;;
75191;SDS011;63771;52.580;9.734;2023-11-21T12:15:26;7.05;;;4.63;;
75191;SDS011;63771;52.580;9.734;2023-11-21T12:17:55;5.30;;;4.78;;
75191;SDS011;63771;52.580;9.734;2023-11-21T12:20:21;5.18;;;4.70;;
75191;SDS011;63771;52.580;9.734;2023-11-21T12:22:52;6.05;;;5.45;;
75191;SDS011;63771;52.580;9.734;2023-11-21T12:25:23;8.18;;;4.72;;
75191;SDS011;63771;52.580;9.734;2023-11-21T12:27:52;5.32;;;4.68;;
75191;SDS011;63771;52.580;9.734;2023-11-21T12:30:19;5.82;;;4.50;;
75191;SDS011;63771;52.580;9.734;2023-11-21T12:32:53;5.47;;;4.80;;
75191;SDS011;63771;52.580;9.734;2023-11-21T12:35:21;3.70;;;3.40;;
75191;SDS011;63771;52.580;9.734;2023-11-21T12:37:49;4.20;;;3.80;;
75191;SDS011;63771;52.580;9.734;2023-11-21T12:40:16;4.45;;;4.05;;
75191;SDS011;63771;52.580;9.734;2023-11-21T12:42:42;8.63;;;3.67;;
75191;SDS011;63771;52.580;9.734;2023-11-21T12:50:24;4.25;;;3.85;;
75191;SDS011;63771;52.580;9.734;2023-11-21T12:52:59;6.15;;;4.10;;
75191;SDS011;63771;52.580;9.734;2023-11-21T12:55:30;6.47;;;4.32;;
75191;SDS011;63771;52.580;9.734;2023-11-21T12:58:02;4.32;;;3.97;;
75191;SDS011;63771;52.580;9.734;2023-11-21T13:00:44;4.13;;;3.72;;
75191;SDS011;63771;52.580;9.734;2023-11-21T13:03:12;4.22;;;2.97;;
75191;SDS011;63771;52.580;9.734;2023-11-21T13:05:41;4.05;;;3.70;;
75191;SDS011;63771;52.580;9.734;2023-11-21T13:08:09;3.28;;;3.08;;
75191;SDS011;63771;52.580;9.734;2023-11-21T13:10:38;5.13;;;3.50;;
75191;SDS011;63771;52.580;9.734;2023-11-21T13:13:05;3.67;;;3.25;;
75191;SDS011;63771;52.580;9.734;2023-11-21T13:15:34;7.45;;;3.65;;
75191;SDS011;63771;52.580;9.734;2023-11-21T13:18:01;4.47;;;4.07;;
75191;SDS011;63771;52.580;9.734;2023-11-21T13:20:27;4.38;;;3.97;;
75191;SDS011;63771;52.580;9.734;2023-11-21T13:22:53;3.50;;;3.20;;
75191;SDS011;63771;52.580;9.734;2023-11-21T13:25:27;4.72;;;2.97;;
75191;SDS011;63771;52.580;9.734;2023-11-21T13:27:54;4.63;;;3.75;;
75191;SDS011;63771;52.580;9.734;2023-11-21T13:30:20;3.97;;;3.25;;
75191;SDS011;63771;52.580;9.734;2023-11-21T13:32:51;6.55;;;3.92;;
75191;SDS011;63771;52.580;9.734;2023-11-21T13:35:17;4.32;;;3.90;;
75191;SDS011;63771;52.580;9.734;2023-11-21T13:37:47;4.63;;;3.75;;
75191;SDS011;63771;52.580;9.734;2023-11-21T13:40:15;4.10;;;3.72;;
75191;SDS011;63771;52.580;9.734;2023-11-21T13:42:45;4.65;;;3.55;;
75191;SDS011;63771;52.580;9.734;2023-11-21T13:45:10;5.57;;;4.22;;
75191;SDS011;63771;52.580;9.734;2023-11-21T13:47:37;4.18;;;3.70;;
75191;SDS011;63771;52.580;9.734;2023-11-21T13:50:03;4.40;;;3.45;;
75191;SDS011;63771;52.580;9.734;2023-11-21T13:52:31;3.35;;;3.05;;
75191;SDS011;63771;52.580;9.734;2023-11-21T13:54:58;3.55;;;3.28;;
75191;SDS011;63771;52.580;9.734;2023-11-21T13:57:26;5.80;;;3.45;;
75191;SDS011;63771;52.580;9.734;2023-11-21T13:59:52;8.35;;;4.25;;
75191;SDS011;63771;52.580;9.734;2023-11-21T14:02:17;6.30;;;4.03;;
75191;SDS011;63771;52.580;9.734;2023-11-21T14:04:43;6.28;;;4.68;;
75191;SDS011;63771;52.580;9.734;2023-11-21T14:07:19;8.27;;;5.53;;
75191;SDS011;63771;52.580;9.734;2023-11-21T14:09:55;5.85;;;4.10;;
75191;SDS011;63771;52.580;9.734;2023-11-21T14:12:21;6.65;;;4.25;;
75191;SDS011;63771;52.580;9.734;2023-11-21T14:14:46;9.02;;;5.25;;
75191;SDS011;63771;52.580;9.734;2023-11-21T14:17:12;7.43;;;5.85;;
75191;SDS011;63771;52.580;9.734;2023-11-21T14:19:38;5.07;;;4.57;;
75191;SDS011;63771;52.580;9.734;2023-11-21T14:22:08;6.15;;;4.78;;
75191;SDS011;63771;52.580;9.734;2023-11-21T14:24:35;8.68;;;5.53;;
75191;SDS011;63771;52.580;9.734;2023-11-21T14:27:00;4.40;;;4.00;;
75191;SDS011;63771;52.580;9.734;2023-11-21T14:29:26;4.87;;;4.00;;
75191;SDS011;63771;52.580;9.734;2023-11-21T14:31:52;3.80;;;3.50;;
75191;SDS011;63771;52.580;9.734;2023-11-21T14:34:21;6.03;;;4.65;;
75191;SDS011;63771;52.580;9.734;2023-11-21T14:36:47;6.50;;;5.10;;
75191;SDS011;63771;52.580;9.734;2023-11-21T14:39:14;8.20;;;4.78;;
75191;SDS011;63771;52.580;9.734;2023-11-21T14:41:51;5.88;;;4.75;;
75191;SDS011;63771;52.580;9.734;2023-11-21T14:44:17;4.88;;;4.13;;
75191;SDS011;63771;52.580;9.734;2023-11-21T14:46:43;9.40;;;4.70;;
75191;SDS011;63771;52.580;9.734;2023-11-21T14:49:11;6.13;;;3.63;;
75191;SDS011;63771;52.580;9.734;2023-11-21T14:51:47;5.85;;;3.58;;
75191;SDS011;63771;52.580;9.734;2023-11-21T14:54:30;4.70;;;4.15;;
75191;SDS011;63771;52.580;9.734;2023-11-21T14:57:11;4.70;;;3.72;;
75191;SDS011;63771;52.580;9.734;2023-11-21T14:59:43;4.30;;;4.00;;
75191;SDS011;63771;52.580;9.734;2023-11-21T15:02:14;3.85;;;3.53;;
75191;SDS011;63771;52.580;9.734;2023-11-21T15:04:43;7.82;;;4.40;;